Time;durP1;ratioP1;P1;durP2;ratioP2;P2;SDS_P1;SDS_P2;PMS_P1;PMS_P2;Temp;Humidity;BMP_temperature;BMP_pressure;BME280_temperature;BME280_humidity;BME280_pressure;Samples;Min_cycle;Max_cycle;Signal;HPM_P1;HPM_P2
2021/09/28 00:02:16;;;;;;;;;;;;;;;11.88;95.12;99240.92;112250;1194;61026;-83
2021/09/28 00:04:43;;;;;;;;;;;;;;;11.90;95.13;99240.10;112283;1196;61027;-83
2021/09/28 00:07:09;;;;;;;;;;;;;;;11.91;95.09;99243.05;112233;1195;61182;-83
2021/09/28 00:09:36;;;;;;;;;;;;;;;11.92;95.02;99245.30;112290;1195;65358;-83
2021/09/28 00:12:02;;;;;;;;;;;;;;;11.92;95.01;99244.73;112289;1193;61026;-83
2021/09/28 00:14:29;;;;;;;;;;;;;;;11.93;94.91;99246.66;112213;1193;61017;-83
2021/09/28 00:16:55;;;;;;;;;;;;;;;11.92;94.90;99244.40;112272;1195;61030;-84
2021/09/28 00:19:22;;;;;;;;;;;;;;;11.92;94.77;99241.40;112275;1195;60956;-84
2021/09/28 00:21:48;;;;;;;;;;;;;;;11.92;94.59;99240.64;112286;1197;61118;-83
2021/09/28 00:24:16;;;;;;;;;;;;;;;11.92;94.58;99236.41;112254;1196;60998;-83
2021/09/28 00:26:42;;;;;;;;;;;;;;;11.91;94.57;99237.36;112210;1195;61048;-82
2021/09/28 00:29:09;;;;;;;;;;;;;;;11.90;94.49;99234.06;112240;1195;66166;-83
2021/09/28 00:31:35;;;;;;;;;;;;;;;11.88;94.39;99234.69;112256;1195;61065;-83
2021/09/28 00:34:02;;;;;;;;;;;;;;;11.87;94.52;99238.89;112239;1196;61180;-83
2021/09/28 00:36:29;;;;;;;;;;;;;;;11.85;94.32;99240.77;112263;1194;61023;-83
2021/09/28 00:38:55;;;;;;;;;;;;;;;11.83;94.39;99235.38;112272;1196;60985;-83
2021/09/28 00:41:22;;;;;;;;;;;;;;;11.81;94.26;99233.73;112263;1195;60974;-83
2021/09/28 00:43:50;;;;;;;;;;;;;;;11.79;94.27;99233.84;112272;1196;61032;-83
2021/09/28 00:46:17;;;;;;;;;;;;;;;11.77;94.22;99235.25;112302;1196;62334;-83
2021/09/28 00:48:44;;;;;;;;;;;;;;;11.75;94.24;99238.24;112212;1195;61007;-85
2021/09/28 00:51:11;;;;;;;;;;;;;;;11.72;94.34;99237.17;112293;1196;61023;-85
2021/09/28 00:53:39;;;;;;;;;;;;;;;11.70;94.39;99235.33;112231;1196;66144;-84
2021/09/28 00:56:13;;;;;;;;;;;;;;;11.68;94.33;99235.48;112159;1195;61148;-84
2021/09/28 00:58:40;;;;;;;;;;;;;;;11.65;94.42;99236.38;112180;1195;64068;-84
2021/09/28 01:01:07;;;;;;;;;;;;;;;11.63;94.30;99239.73;112257;1193;61025;-84
2021/09/28 01:03:34;;;;;;;;;;;;;;;11.60;94.46;99242.23;112229;1196;61041;-85
2021/09/28 01:06:01;;;;;;;;;;;;;;;11.58;94.34;99242.05;112273;1195;65785;-83
2021/09/28 01:08:28;;;;;;;;;;;;;;;11.55;94.32;99243.27;112310;1195;61064;-85
2021/09/28 01:10:55;;;;;;;;;;;;;;;11.52;94.36;99241.88;112230;1196;63985;-85
2021/09/28 01:13:22;;;;;;;;;;;;;;;11.49;94.36;99244.61;112348;1195;60985;-85
2021/09/28 01:15:58;;;;;;;;;;;;;;;11.46;94.41;99246.02;112230;1196;61026;-84
2021/09/28 01:18:32;;;;;;;;;;;;;;;11.42;94.57;99245.91;112272;1194;66273;-85
2021/09/28 01:20:59;;;;;;;;;;;;;;;11.39;94.64;99244.37;112354;1195;61065;-85
2021/09/28 01:23:26;;;;;;;;;;;;;;;11.37;94.72;99244.88;112331;1196;64489;-84
2021/09/28 01:25:53;;;;;;;;;;;;;;;11.35;94.71;99245.17;112241;1194;60985;-85
2021/09/28 01:28:19;;;;;;;;;;;;;;;11.33;94.77;99245.33;112298;1194;61023;-85
2021/09/28 01:30:46;;;;;;;;;;;;;;;11.30;94.76;99249.23;112272;1196;66796;-84
2021/09/28 01:33:12;;;;;;;;;;;;;;;11.28;94.82;99249.20;112287;1194;61064;-84
2021/09/28 01:35:40;;;;;;;;;;;;;;;11.25;94.93;99247.42;112316;1195;64056;-84
2021/09/28 01:38:07;;;;;;;;;;;;;;;11.23;94.99;99252.55;112256;1194;61058;-84
2021/09/28 01:40:34;;;;;;;;;;;;;;;11.19;95.01;99249.58;112275;1193;61157;-84
2021/09/28 01:43:05;;;;;;;;;;;;;;;11.15;95.10;99247.88;112298;1195;66045;-84
2021/09/28 01:45:31;;;;;;;;;;;;;;;11.11;95.07;99251.34;112252;1195;60975;-84
2021/09/28 01:47:58;;;;;;;;;;;;;;;11.08;95.12;99250.83;112263;1195;60976;-84
2021/09/28 01:50:25;;;;;;;;;;;;;;;11.05;95.20;99251.95;112183;1195;60993;-84
2021/09/28 01:52:51;;;;;;;;;;;;;;;11.02;95.20;99255.55;112295;1195;60947;-83
2021/09/28 01:55:17;;;;;;;;;;;;;;;10.98;95.23;99261.95;112234;1195;60968;-83
2021/09/28 01:57:44;;;;;;;;;;;;;;;10.95;95.34;99262.32;112238;1196;61004;-82
2021/09/28 02:00:45;;;;;;;;;;;;;;;10.92;95.37;99263.60;112243;1196;61067;-83
2021/09/28 02:03:11;;;;;;;;;;;;;;;10.88;95.44;99263.66;112261;1195;61158;-83
2021/09/28 02:05:39;;;;;;;;;;;;;;;10.86;95.54;99262.08;112236;1195;61164;-82
2021/09/28 02:08:06;;;;;;;;;;;;;;;10.83;95.55;99261.88;112280;1195;66062;-83
2021/09/28 02:10:33;;;;;;;;;;;;;;;10.81;95.73;99265.25;112232;1195;61070;-83
2021/09/28 02:12:59;;;;;;;;;;;;;;;10.77;95.70;99267.58;112184;1196;61116;-83
2021/09/28 02:15:26;;;;;;;;;;;;;;;10.74;95.91;99269.58;112213;1195;61078;-83
2021/09/28 02:17:52;;;;;;;;;;;;;;;10.71;95.98;99269.92;112240;1196;61094;-83
2021/09/28 02:20:19;;;;;;;;;;;;;;;10.68;96.02;99272.26;112300;1195;61017;-83
2021/09/28 02:22:45;;;;;;;;;;;;;;;10.65;96.09;99269.05;112264;1195;61096;-83
2021/09/28 02:25:13;;;;;;;;;;;;;;;10.63;96.14;99272.39;112251;1196;65006;-83
2021/09/28 02:27:40;;;;;;;;;;;;;;;10.62;96.26;99277.44;112249;1193;61045;-84
2021/09/28 02:30:07;;;;;;;;;;;;;;;10.60;96.35;99281.48;112275;1193;61117;-84
2021/09/28 02:32:33;;;;;;;;;;;;;;;10.58;96.44;99277.27;112301;1194;64632;-83
2021/09/28 02:35:00;;;;;;;;;;;;;;;10.58;96.50;99274.84;112257;1195;61101;-83
2021/09/28 02:37:26;;;;;;;;;;;;;;;10.58;96.53;99273.44;112216;1195;60959;-87
2021/09/28 02:39:53;;;;;;;;;;;;;;;10.57;96.60;99273.98;112292;1193;60946;-84
2021/09/28 02:42:19;;;;;;;;;;;;;;;10.59;96.59;99275.69;112231;1194;61045;-84
2021/09/28 02:44:48;;;;;;;;;;;;;;;10.60;96.52;99277.91;112109;1196;61134;-84
2021/09/28 02:47:15;;;;;;;;;;;;;;;10.62;96.58;99279.39;112182;1194;61044;-84
2021/09/28 02:49:41;;;;;;;;;;;;;;;10.64;96.56;99276.04;112232;1195;63994;-84
2021/09/28 02:52:08;;;;;;;;;;;;;;;10.67;96.53;99276.02;112250;1193;61033;-84
2021/09/28 02:54:34;;;;;;;;;;;;;;;10.69;96.56;99275.36;112275;1193;61077;-85
2021/09/28 02:57:01;;;;;;;;;;;;;;;10.71;96.53;99278.25;112223;1196;61008;-84
2021/09/28 02:59:27;;;;;;;;;;;;;;;10.73;96.40;99278.16;112290;1194;61134;-82
2021/09/28 03:01:53;;;;;;;;;;;;;;;10.73;96.47;99279.17;112279;1196;61067;-82
2021/09/28 03:04:20;;;;;;;;;;;;;;;10.73;96.38;99276.36;112238;1196;61045;-82
2021/09/28 03:06:47;;;;;;;;;;;;;;;10.74;96.61;99280.23;112216;1196;61045;-83
2021/09/28 03:09:13;;;;;;;;;;;;;;;10.73;96.58;99273.55;112254;1195;61161;-82
2021/09/28 03:11:40;;;;;;;;;;;;;;;10.72;96.44;99276.44;112227;1196;61027;-85
2021/09/28 03:14:07;;;;;;;;;;;;;;;10.69;96.34;99274.29;112218;1195;65113;-85
2021/09/28 03:16:33;;;;;;;;;;;;;;;10.67;96.55;99277.29;112246;1196;60994;-85
2021/09/28 03:19:00;;;;;;;;;;;;;;;10.64;96.49;99278.02;112279;1193;61065;-83
2021/09/28 03:21:27;;;;;;;;;;;;;;;10.61;96.41;99279.77;112246;1195;61055;-82
2021/09/28 03:23:53;;;;;;;;;;;;;;;10.59;96.41;99280.81;112285;1196;61155;-83
2021/09/28 03:26:20;;;;;;;;;;;;;;;10.56;96.53;99280.98;112281;1195;62356;-82
2021/09/28 03:28:46;;;;;;;;;;;;;;;10.52;96.40;99280.67;112269;1196;61064;-82
2021/09/28 03:31:13;;;;;;;;;;;;;;;10.50;96.57;99279.58;112373;1193;61170;-85
2021/09/28 03:33:40;;;;;;;;;;;;;;;10.47;96.54;99276.73;112216;1196;66115;-83
2021/09/28 03:36:06;;;;;;;;;;;;;;;10.44;96.54;99278.53;112225;1195;61046;-83
2021/09/28 03:38:33;;;;;;;;;;;;;;;10.41;96.58;99279.64;112251;1196;64867;-83
2021/09/28 03:40:59;;;;;;;;;;;;;;;10.37;96.62;99283.23;112270;1193;61042;-84
2021/09/28 03:43:26;;;;;;;;;;;;;;;10.32;96.74;99282.80;112260;1194;61073;-84
2021/09/28 03:45:56;;;;;;;;;;;;;;;10.28;96.73;99287.34;112249;1196;65826;-83
2021/09/28 03:48:23;;;;;;;;;;;;;;;10.24;96.75;99287.55;112286;1196;61055;-83
2021/09/28 03:50:49;;;;;;;;;;;;;;;10.20;96.84;99288.84;112247;1196;61033;-83
2021/09/28 03:53:16;;;;;;;;;;;;;;;10.16;96.87;99289.62;112211;1193;61065;-83
2021/09/28 03:55:42;;;;;;;;;;;;;;;10.13;96.86;99292.83;112274;1194;61630;-85
2021/09/28 03:58:11;;;;;;;;;;;;;;;10.10;96.93;99293.91;112240;1195;61045;-83
2021/09/28 04:00:39;;;;;;;;;;;;;;;10.07;96.91;99295.48;112300;1196;60988;-84
2021/09/28 04:03:06;;;;;;;;;;;;;;;10.04;96.89;99294.96;112170;1196;64999;-84
2021/09/28 04:05:33;;;;;;;;;;;;;;;10.01;97.05;99296.23;112195;1195;61043;-82
2021/09/28 04:08:00;;;;;;;;;;;;;;;9.97;96.97;99298.56;112248;1196;60950;-83
2021/09/28 04:10:26;;;;;;;;;;;;;;;9.94;97.09;99306.95;112258;1195;65696;-82
2021/09/28 04:12:53;;;;;;;;;;;;;;;9.91;97.04;99311.21;112338;1195;61008;-84
2021/09/28 04:15:24;;;;;;;;;;;;;;;9.87;97.19;99310.15;112245;1196;62983;-85
2021/09/28 04:17:50;;;;;;;;;;;;;;;9.85;97.20;99313.85;112246;1195;61077;-84
2021/09/28 04:20:17;;;;;;;;;;;;;;;9.83;97.15;99312.91;112421;1193;61068;-85
2021/09/28 04:22:44;;;;;;;;;;;;;;;9.79;97.24;99309.58;112157;1196;64613;-85
2021/09/28 04:25:11;;;;;;;;;;;;;;;9.76;97.32;99318.09;112243;1196;61058;-85
2021/09/28 04:27:37;;;;;;;;;;;;;;;9.74;97.24;99314.70;112312;1195;64743;-86
2021/09/28 04:30:05;;;;;;;;;;;;;;;9.71;97.23;99319.09;112174;1196;61046;-83
2021/09/28 04:32:31;;;;;;;;;;;;;;;9.69;97.36;99320.45;112230;1193;60978;-83
2021/09/28 04:34:58;;;;;;;;;;;;;;;9.67;97.37;99314.70;112284;1195;60984;-84
2021/09/28 04:37:24;;;;;;;;;;;;;;;9.66;97.44;99313.86;112268;1195;60994;-84
2021/09/28 04:39:51;;;;;;;;;;;;;;;9.66;97.43;99312.11;112284;1196;63861;-84
2021/09/28 04:42:17;;;;;;;;;;;;;;;9.65;97.41;99313.40;112231;1194;60982;-82
2021/09/28 04:44:44;;;;;;;;;;;;;;;9.64;97.44;99318.63;112246;1195;61011;-85
2021/09/28 04:47:11;;;;;;;;;;;;;;;9.63;97.44;99315.27;112276;1195;61006;-82
2021/09/28 04:49:37;;;;;;;;;;;;;;;9.63;97.41;99317.40;112242;1195;61042;-83
2021/09/28 04:52:04;;;;;;;;;;;;;;;9.63;97.51;99318.81;112230;1195;61032;-83
2021/09/28 04:54:30;;;;;;;;;;;;;;;9.65;97.46;99322.98;112301;1195;61026;-83
2021/09/28 04:56:57;;;;;;;;;;;;;;;9.66;97.48;99324.67;112179;1195;61046;-83
2021/09/28 04:59:23;;;;;;;;;;;;;;;9.69;97.42;99320.13;112301;1195;61065;-84
2021/09/28 05:01:50;;;;;;;;;;;;;;;9.73;97.36;99321.86;112253;1195;60969;-83
2021/09/28 05:04:16;;;;;;;;;;;;;;;9.80;97.16;99322.27;112245;1196;61030;-83
2021/09/28 05:06:43;;;;;;;;;;;;;;;9.83;97.12;99320.36;112259;1193;61748;-83
2021/09/28 05:09:09;;;;;;;;;;;;;;;9.83;97.02;99325.48;112259;1194;61007;-83
2021/09/28 05:11:36;;;;;;;;;;;;;;;9.85;96.97;99328.20;112304;1195;65986;-83
2021/09/28 05:14:05;;;;;;;;;;;;;;;9.88;96.95;99329.65;112218;1194;61087;-83
2021/09/28 05:16:32;;;;;;;;;;;;;;;9.90;96.90;99332.20;112245;1195;62878;-83
2021/09/28 05:18:58;;;;;;;;;;;;;;;9.93;96.83;99332.00;112280;1195;61008;-83
2021/09/28 05:21:26;;;;;;;;;;;;;;;10.01;96.64;99338.11;112270;1194;61039;-84
2021/09/28 05:23:52;;;;;;;;;;;;;;;10.11;96.49;99338.94;112253;1196;66015;-84
2021/09/28 05:26:19;;;;;;;;;;;;;;;10.18;96.34;99335.67;112275;1195;61068;-84
2021/09/28 05:28:45;;;;;;;;;;;;;;;10.26;96.20;99339.44;112237;1195;63819;-84
2021/09/28 05:31:12;;;;;;;;;;;;;;;10.38;96.23;99340.36;112270;1193;61437;-83
2021/09/28 05:33:38;;;;;;;;;;;;;;;10.44;95.91;99340.35;112241;1193;61077;-83
2021/09/28 05:36:05;;;;;;;;;;;;;;;10.49;95.87;99336.51;112276;1195;61010;-83
2021/09/28 05:38:31;;;;;;;;;;;;;;;10.58;95.76;99337.73;112270;1195;61090;-83
2021/09/28 05:40:58;;;;;;;;;;;;;;;10.69;95.71;99341.51;112295;1195;61033;-82
2021/09/28 05:43:25;;;;;;;;;;;;;;;10.78;95.34;99342.39;112140;1195;61013;-83
2021/09/28 05:45:52;;;;;;;;;;;;;;;10.83;95.22;99341.91;112289;1195;61026;-82
2021/09/28 05:48:18;;;;;;;;;;;;;;;10.87;95.08;99343.58;112229;1196;60978;-83
2021/09/28 05:50:46;;;;;;;;;;;;;;;10.85;94.97;99349.40;112253;1195;61042;-83
2021/09/28 05:53:13;;;;;;;;;;;;;;;10.85;95.04;99350.64;112257;1194;64010;-83
2021/09/28 05:55:39;;;;;;;;;;;;;;;10.86;95.00;99351.12;112267;1195;61052;-83
2021/09/28 05:58:07;;;;;;;;;;;;;;;10.89;95.03;99354.13;112297;1195;61027;-83
2021/09/28 06:00:34;;;;;;;;;;;;;;;10.93;95.01;99353.86;112325;1196;66113;-83
2021/09/28 06:03:00;;;;;;;;;;;;;;;10.94;94.76;99356.84;112272;1195;60966;-84
2021/09/28 06:05:27;;;;;;;;;;;;;;;10.94;94.86;99354.84;112244;1196;60978;-83
2021/09/28 06:07:54;;;;;;;;;;;;;;;10.98;94.79;99362.23;112263;1193;60997;-83
2021/09/28 06:10:20;;;;;;;;;;;;;;;11.02;94.68;99364.33;112235;1193;61065;-83
2021/09/28 06:12:47;;;;;;;;;;;;;;;11.05;94.63;99369.79;112224;1195;65843;-83
2021/09/28 06:15:13;;;;;;;;;;;;;;;11.12;94.48;99374.90;112300;1195;61022;-85
2021/09/28 06:17:40;;;;;;;;;;;;;;;11.26;94.25;99383.09;112277;1195;61063;-83
2021/09/28 06:20:08;;;;;;;;;;;;;;;11.43;94.08;99388.36;112268;1196;61033;-83
2021/09/28 06:22:35;;;;;;;;;;;;;;;11.53;93.87;99391.30;112268;1195;61094;-83
2021/09/28 06:25:01;;;;;;;;;;;;;;;11.62;93.62;99388.42;112234;1196;65945;-83
2021/09/28 06:27:28;;;;;;;;;;;;;;;11.68;93.32;99383.44;112228;1195;60975;-83
2021/09/28 06:29:54;;;;;;;;;;;;;;;11.63;92.83;99381.38;112223;1196;61027;-83
2021/09/28 06:32:23;;;;;;;;;;;;;;;11.59;92.80;99391.79;112275;1194;60956;-83
2021/09/28 06:34:49;;;;;;;;;;;;;;;11.54;92.84;99393.37;112283;1194;61174;-83
2021/09/28 06:37:16;;;;;;;;;;;;;;;11.53;93.07;99397.70;112303;1195;66098;-83
2021/09/28 06:39:42;;;;;;;;;;;;;;;11.59;93.14;99405.67;112272;1196;60985;-83
2021/09/28 06:42:09;;;;;;;;;;;;;;;11.67;93.16;99406.61;112237;1196;61745;-83
2021/09/28 06:44:35;;;;;;;;;;;;;;;11.78;93.47;99409.44;112221;1195;61166;-83
2021/09/28 06:47:02;;;;;;;;;;;;;;;11.87;93.26;99413.34;112267;1195;61029;-83
2021/09/28 06:49:28;;;;;;;;;;;;;;;11.95;93.06;99414.61;112296;1195;61217;-85
2021/09/28 06:51:57;;;;;;;;;;;;;;;12.07;93.12;99412.18;112257;1195;61056;-83
2021/09/28 06:54:25;;;;;;;;;;;;;;;12.18;92.65;99410.58;112308;1195;64112;-85
2021/09/28 06:56:51;;;;;;;;;;;;;;;12.23;92.06;99417.55;112229;1194;61039;-85
2021/09/28 06:59:18;;;;;;;;;;;;;;;12.27;91.74;99418.54;112293;1193;60984;-84
2021/09/28 07:01:45;;;;;;;;;;;;;;;12.36;91.64;99420.40;112286;1195;66333;-83
2021/09/28 07:04:11;;;;;;;;;;;;;;;12.49;91.44;99417.42;112262;1195;60979;-85
2021/09/28 07:06:38;;;;;;;;;;;;;;;12.56;91.07;99417.84;112238;1195;61028;-82
2021/09/28 07:09:05;;;;;;;;;;;;;;;12.64;90.82;99417.84;112252;1194;61043;-86
2021/09/28 07:11:32;;;;;;;;;;;;;;;12.67;90.43;99417.43;112310;1194;61019;-85
2021/09/28 07:13:58;;;;;;;;;;;;;;;12.68;90.12;99415.70;112266;1195;65103;-83
2021/09/28 07:16:24;;;;;;;;;;;;;;;12.74;89.98;99421.04;112270;1195;60985;-83
2021/09/28 07:18:51;;;;;;;;;;;;;;;12.88;89.72;99420.92;112305;1196;62730;-85
2021/09/28 07:21:18;;;;;;;;;;;;;;;13.06;89.73;99425.91;112374;1195;61103;-85
2021/09/28 07:23:44;;;;;;;;;;;;;;;13.21;89.50;99424.39;112326;1196;60994;-86
2021/09/28 07:26:11;;;;;;;;;;;;;;;13.40;89.56;99428.38;112311;1196;61019;-85
2021/09/28 07:28:38;;;;;;;;;;;;;;;13.55;89.23;99431.80;112301;1196;61058;-86
2021/09/28 07:31:05;;;;;;;;;;;;;;;13.69;88.78;99442.01;112248;1195;71807;-86
2021/09/28 07:33:32;;;;;;;;;;;;;;;13.77;88.13;99441.80;112276;1195;60982;-85
2021/09/28 07:36:00;;;;;;;;;;;;;;;13.86;88.00;99440.40;112254;1195;61061;-87
2021/09/28 07:38:27;;;;;;;;;;;;;;;13.99;87.82;99441.61;112237;1195;66007;-85
2021/09/28 07:40:54;;;;;;;;;;;;;;;14.16;87.70;99445.12;112324;1196;61033;-84
2021/09/28 07:43:20;;;;;;;;;;;;;;;14.32;87.14;99443.27;112367;1195;62761;-85
2021/09/28 07:45:47;;;;;;;;;;;;;;;14.44;86.70;99448.94;112243;1193;61059;-87
2021/09/28 07:48:14;;;;;;;;;;;;;;;14.54;86.37;99447.66;112234;1196;61008;-87
2021/09/28 07:50:41;;;;;;;;;;;;;;;14.60;85.59;99445.83;112260;1195;66027;-85
2021/09/28 07:53:07;;;;;;;;;;;;;;;14.64;85.82;99449.29;112317;1196;61058;-87
2021/09/28 07:55:35;;;;;;;;;;;;;;;14.79;85.19;99448.61;112282;1195;63811;-87
2021/09/28 07:58:02;;;;;;;;;;;;;;;14.87;84.88;99447.63;112275;1193;60966;-85
2021/09/28 08:00:29;;;;;;;;;;;;;;;15.01;84.43;99448.36;112152;1195;61138;-86
2021/09/28 08:02:55;;;;;;;;;;;;;;;15.08;83.88;99453.21;112327;1195;66065;-84
2021/09/28 08:05:22;;;;;;;;;;;;;;;15.08;83.87;99452.60;112223;1195;61064;-85
2021/09/28 08:07:48;;;;;;;;;;;;;;;15.09;83.86;99446.27;112268;1195;60985;-85
2021/09/28 08:10:16;;;;;;;;;;;;;;;15.15;83.89;99450.52;112282;1194;61095;-85
2021/09/28 08:12:42;;;;;;;;;;;;;;;15.18;83.30;99451.03;112232;1195;60985;-85
2021/09/28 08:15:09;;;;;;;;;;;;;;;15.15;82.93;99446.52;112110;1196;66727;-85
2021/09/28 08:17:36;;;;;;;;;;;;;;;15.20;82.96;99448.46;112250;1195;60959;-85
2021/09/28 08:20:03;;;;;;;;;;;;;;;15.26;82.89;99450.69;112244;1196;63799;-85
2021/09/28 08:22:30;;;;;;;;;;;;;;;15.29;82.79;99451.67;112324;1196;61061;-83
2021/09/28 08:25:06;;;;;;;;;;;;;;;15.31;82.40;99454.02;112199;1194;60985;-83
2021/09/28 08:30:18;;;;;;;;;;;;;;;15.35;82.47;99449.23;112228;1195;60934;-83
2021/09/28 08:32:45;;;;;;;;;;;;;;;15.32;82.25;99449.28;112211;1196;61099;-84
2021/09/28 08:35:11;;;;;;;;;;;;;;;15.28;82.02;99450.94;112299;1196;61071;-84
2021/09/28 08:37:37;;;;;;;;;;;;;;;15.24;82.28;99452.27;112259;1195;61057;-84
2021/09/28 08:40:04;;;;;;;;;;;;;;;15.25;82.48;99453.46;112105;1195;61125;-84
2021/09/28 08:42:31;;;;;;;;;;;;;;;15.35;82.68;99452.14;112270;1196;61045;-83
2021/09/28 08:44:57;;;;;;;;;;;;;;;15.45;82.49;99454.55;112251;1196;63829;-83
2021/09/28 08:47:37;;;;;;;;;;;;;;;15.60;82.66;99455.17;112289;1195;61760;-84
2021/09/28 08:50:06;;;;;;;;;;;;;;;15.69;82.11;99455.54;112267;1196;61067;-84
2021/09/28 08:52:37;;;;;;;;;;;;;;;15.71;80.84;99456.25;112307;1196;65721;-84
2021/09/28 08:55:03;;;;;;;;;;;;;;;15.65;80.87;99457.25;112256;1195;61020;-84
2021/09/28 08:57:30;;;;;;;;;;;;;;;15.69;81.29;99458.19;112259;1194;65077;-84
2021/09/28 08:59:59;;;;;;;;;;;;;;;15.85;81.35;99459.83;112205;1195;60963;-83
2021/09/28 09:02:43;;;;;;;;;;;;;;;15.98;81.15;99461.81;112298;1195;61033;-84
2021/09/28 09:05:14;;;;;;;;;;;;;;;16.11;80.25;99458.91;112120;1196;66024;-84
2021/09/28 09:07:41;;;;;;;;;;;;;;;16.08;79.08;99461.11;112142;1195;60956;-84
2021/09/28 09:10:09;;;;;;;;;;;;;;;15.94;78.97;99464.96;112265;1196;64001;-84
2021/09/28 09:12:36;;;;;;;;;;;;;;;15.81;79.20;99465.52;112271;1196;60914;-84
2021/09/28 09:15:15;;;;;;;;;;;;;;;15.76;79.29;99464.99;112292;1196;61090;-84
2021/09/28 09:17:42;;;;;;;;;;;;;;;15.80;79.90;99465.36;112300;1196;65828;-84
2021/09/28 09:20:24;;;;;;;;;;;;;;;15.92;79.87;99465.32;112264;1196;61039;-84
2021/09/28 09:22:52;;;;;;;;;;;;;;;16.04;79.60;99468.15;112218;1195;64010;-84
2021/09/28 09:25:19;;;;;;;;;;;;;;;16.13;79.19;99466.83;112247;1194;61064;-83
2021/09/28 09:27:46;;;;;;;;;;;;;;;16.16;79.25;99463.33;112318;1194;61011;-85
2021/09/28 09:30:21;;;;;;;;;;;;;;;16.22;79.19;99462.80;112122;1196;66483;-86
2021/09/28 09:32:51;;;;;;;;;;;;;;;16.35;79.07;99466.10;112296;1195;61013;-83
2021/09/28 09:35:28;;;;;;;;;;;;;;;16.48;79.23;99467.20;112238;1196;63991;-84
2021/09/28 09:38:06;;;;;;;;;;;;;;;16.55;78.98;99470.71;112253;1195;61036;-84
2021/09/28 09:40:36;;;;;;;;;;;;;;;16.63;78.68;99469.66;112245;1195;60949;-83
2021/09/28 09:43:04;;;;;;;;;;;;;;;16.71;78.26;99468.05;112279;1195;64641;-83
2021/09/28 09:45:30;;;;;;;;;;;;;;;16.83;78.18;99461.17;112267;1194;60962;-84
2021/09/28 09:47:57;;;;;;;;;;;;;;;16.97;78.03;99458.38;112102;1196;64121;-84
2021/09/28 09:50:26;;;;;;;;;;;;;;;17.08;77.74;99451.84;112286;1193;60953;-84
2021/09/28 09:52:59;;;;;;;;;;;;;;;17.18;77.69;99454.16;112153;1195;61071;-84
2021/09/28 09:55:33;;;;;;;;;;;;;;;17.33;78.07;99454.55;112226;1196;66153;-84
2021/09/28 09:58:00;;;;;;;;;;;;;;;17.48;78.12;99458.97;112311;1195;61103;-85
2021/09/28 10:00:28;;;;;;;;;;;;;;;17.61;77.42;99457.28;112245;1196;64036;-85
2021/09/28 10:02:55;;;;;;;;;;;;;;;17.61;76.26;99457.77;112295;1193;61043;-83
2021/09/28 10:05:22;;;;;;;;;;;;;;;17.65;76.20;99457.75;112300;1196;61090;-84
2021/09/28 10:07:49;;;;;;;;;;;;;;;17.72;75.97;99459.47;112289;1196;60960;-83
2021/09/28 10:10:19;;;;;;;;;;;;;;;17.74;75.87;99457.50;112209;1196;60838;-84
2021/09/28 10:12:46;;;;;;;;;;;;;;;17.83;76.01;99457.11;112327;1195;63997;-84
2021/09/28 10:15:16;;;;;;;;;;;;;;;17.95;75.23;99456.36;112281;1195;61046;-85
2021/09/28 10:17:44;;;;;;;;;;;;;;;17.93;74.21;99460.52;112284;1194;60991;-86
2021/09/28 10:20:24;;;;;;;;;;;;;;;17.92;74.34;99462.23;112297;1195;65009;-85
2021/09/28 10:22:52;;;;;;;;;;;;;;;17.91;74.40;99462.53;112269;1194;61052;-84
2021/09/28 10:25:19;;;;;;;;;;;;;;;18.01;74.96;99464.89;112061;1195;64074;-86
2021/09/28 10:27:46;;;;;;;;;;;;;;;18.15;75.30;99467.95;112262;1194;62136;-85
2021/09/28 10:30:28;;;;;;;;;;;;;;;18.17;74.48;99471.47;112285;1196;60979;-83
2021/09/28 10:32:55;;;;;;;;;;;;;;;18.11;73.78;99475.59;112268;1195;66050;-84
2021/09/28 10:35:23;;;;;;;;;;;;;;;18.10;73.98;99480.62;112326;1196;61046;-83
2021/09/28 10:37:57;;;;;;;;;;;;;;;18.10;73.63;99478.80;112262;1195;64098;-84
2021/09/28 10:40:27;;;;;;;;;;;;;;;18.09;73.87;99479.23;112294;1195;61091;-85
2021/09/28 10:42:53;;;;;;;;;;;;;;;18.10;73.99;99476.81;112279;1194;61007;-84
2021/09/28 10:45:40;;;;;;;;;;;;;;;18.12;73.45;99474.32;112267;1195;65997;-85
2021/09/28 10:48:29;;;;;;;;;;;;;;;18.07;73.08;99473.47;112330;1193;67865;-85
2021/09/28 10:51:04;;;;;;;;;;;;;;;18.09;72.99;99472.07;112258;1193;63718;-85
2021/09/28 10:53:33;;;;;;;;;;;;;;;18.11;73.20;99473.61;112250;1193;61763;-85
2021/09/28 10:56:07;;;;;;;;;;;;;;;18.10;72.26;99474.13;112288;1193;61047;-85
2021/09/28 10:58:52;;;;;;;;;;;;;;;18.05;72.41;99474.59;112307;1193;64681;-85
2021/09/28 11:01:20;;;;;;;;;;;;;;;18.02;72.46;99469.80;112242;1193;61040;-85
2021/09/28 11:03:50;;;;;;;;;;;;;;;18.06;72.61;99466.00;112252;1193;64049;-85
2021/09/28 11:06:37;;;;;;;;;;;;;;;18.15;72.22;99461.81;112280;1193;61068;-85
2021/09/28 11:09:03;;;;;;;;;;;;;;;18.20;72.26;99461.67;112265;1193;61042;-85
2021/09/28 11:11:30;;;;;;;;;;;;;;;18.25;71.89;99459.60;112301;1193;66962;-85
2021/09/28 11:14:05;;;;;;;;;;;;;;;18.26;72.00;99456.34;112303;1193;60976;-85
2021/09/28 11:16:58;;;;;;;;;;;;;;;18.30;71.94;99457.23;112251;1193;64141;-85
2021/09/28 11:19:35;;;;;;;;;;;;;;;18.29;71.33;99456.77;112309;1193;60988;-85
2021/09/28 11:22:03;;;;;;;;;;;;;;;18.27;71.77;99456.63;112297;1193;61057;-85
2021/09/28 11:24:31;;;;;;;;;;;;;;;18.32;71.69;99454.13;112285;1193;65690;-85
2021/09/28 11:27:01;;;;;;;;;;;;;;;18.38;71.48;99449.39;112280;1193;61075;-85
2021/09/28 11:29:29;;;;;;;;;;;;;;;18.44;70.71;99448.17;112240;1193;62472;-85
2021/09/28 11:31:55;;;;;;;;;;;;;;;18.41;70.43;99446.64;112248;1193;60975;-84
2021/09/28 11:34:27;;;;;;;;;;;;;;;18.37;69.66;99443.71;112261;1193;61016;-85
2021/09/28 11:36:57;;;;;;;;;;;;;;;18.32;69.89;99447.31;112320;1193;67006;-85
2021/09/28 11:39:24;;;;;;;;;;;;;;;18.37;70.17;99442.89;112336;1193;61087;-85
2021/09/28 11:41:50;;;;;;;;;;;;;;;18.47;70.40;99441.98;112277;1193;61056;-85
2021/09/28 11:44:17;;;;;;;;;;;;;;;18.60;69.99;99442.51;112276;1193;61061;-85
2021/09/28 11:46:43;;;;;;;;;;;;;;;18.69;70.06;99439.38;112275;1193;60936;-85
2021/09/28 11:49:11;;;;;;;;;;;;;;;18.78;69.55;99441.08;112260;1196;61088;-85
2021/09/28 11:51:41;;;;;;;;;;;;;;;18.80;68.94;99439.60;112314;1193;61030;-84
2021/09/28 11:54:09;;;;;;;;;;;;;;;18.77;69.02;99441.90;112281;1193;62676;-84
2021/09/28 11:56:38;;;;;;;;;;;;;;;18.72;68.38;99441.77;112227;1193;61010;-83
2021/09/28 11:59:09;;;;;;;;;;;;;;;18.70;68.55;99441.39;112266;1194;61126;-83
2021/09/28 12:01:36;;;;;;;;;;;;;;;18.72;68.40;99439.11;112265;1193;66841;-83
2021/09/28 12:09:47;;;;;;;;;;;;;;;18.93;69.05;99448.25;112257;1193;61057;-84
2021/09/28 12:12:16;;;;;;;;;;;;;;;19.04;68.90;99453.58;112342;1193;61053;-84
2021/09/28 12:14:47;;;;;;;;;;;;;;;19.12;68.74;99450.69;112325;1193;64665;-84
2021/09/28 12:17:15;;;;;;;;;;;;;;;19.09;68.42;99447.83;112281;1193;60972;-84
2021/09/28 12:19:43;;;;;;;;;;;;;;;19.12;68.06;99452.78;112259;1193;62371;-84
2021/09/28 12:22:10;;;;;;;;;;;;;;;19.02;67.76;99457.55;112247;1193;61089;-84
2021/09/28 12:24:44;;;;;;;;;;;;;;;18.99;68.26;99457.83;112324;1193;61436;-83
2021/09/28 12:27:11;;;;;;;;;;;;;;;19.02;68.39;99456.48;112293;1193;64644;-85
2021/09/28 12:29:39;;;;;;;;;;;;;;;19.12;68.59;99456.37;112297;1193;61026;-84
2021/09/28 12:32:06;;;;;;;;;;;;;;;19.23;68.28;99461.26;112287;1193;64078;-84
2021/09/28 12:34:50;;;;;;;;;;;;;;;19.30;68.12;99455.61;112232;1193;61052;-84
2021/09/28 12:37:18;;;;;;;;;;;;;;;19.35;68.03;99458.55;112304;1193;60943;-85
2021/09/28 12:40:03;;;;;;;;;;;;;;;19.38;68.03;99460.23;112327;1194;65819;-85
2021/09/28 12:42:30;;;;;;;;;;;;;;;19.34;67.03;99463.16;112314;1193;61020;-85
2021/09/28 12:44:58;;;;;;;;;;;;;;;19.25;67.29;99461.08;112180;1194;63704;-85
2021/09/28 12:47:25;;;;;;;;;;;;;;;19.24;67.03;99458.84;112277;1195;61293;-83
2021/09/28 12:49:52;;;;;;;;;;;;;;;19.15;66.69;99459.74;112286;1193;61067;-85
2021/09/28 12:52:18;;;;;;;;;;;;;;;19.05;66.82;99459.95;112252;1193;65805;-86